UAE92J EGCC-GCFV
Flight info
| Callsign | UAE92J |
|---|---|
| Flight time | 4h 2m |
| Altitude | 23000 |
| Route | ASMIM DCT NOKIN P17 BEPHE/N0449F380 DCT OSSEP DCT ELNIF DCT ZESPE DCT DAWLY DCT BHD DCT ANNET/N0442F370 DCT EKVEB DCT KORUL DCT ASPOR/N0449F390 DCT FTM DCT DEKKI DCT TROIA DCT TAKAV DCT VEDOD UN857 TERTO |
| Aircraft | A20N/M-SDE2E3FGHIRWXY/LB1 |
Departure
| Time | 2026-05-06 14:20 |
|---|---|
| Airport | Manchester Airport (EGCC) |
Arrival
| Time | 2026-05-06 18:23 |
|---|---|
| Airport | Fuerteventura Airport (GCFV) |
| Time | Latitude | Longitude | Altitude | Speed | Heading |
|---|---|---|---|---|---|
| 2026-05-06 13:47 | 53.35815 | -2.27488 | 242 ft | 0 kts | 51° |
| 2026-05-06 14:08 | 53.35812 | -2.27494 | 242 ft | 2 kts | 52° |
| 2026-05-06 14:08 | 53.35805 | -2.27518 | 242 ft | 2 kts | 81° |
| 2026-05-06 14:08 | 53.35804 | -2.27546 | 241 ft | 2 kts | 100° |
| 2026-05-06 14:08 | 53.35809 | -2.27573 | 241 ft | 2 kts | 116° |
| 2026-05-06 14:09 | 53.35817 | -2.27596 | 241 ft | 3 kts | 125° |
| 2026-05-06 14:09 | 53.35829 | -2.27617 | 241 ft | 2 kts | 142° |
| 2026-05-06 14:09 | 53.35842 | -2.27634 | 241 ft | 2 kts | 147° |
| 2026-05-06 14:09 | 53.35856 | -2.27646 | 241 ft | 2 kts | 161° |
| 2026-05-06 14:10 | 53.35862 | -2.27649 | 241 ft | 0 kts | 175° |
| 2026-05-06 14:11 | 53.35861 | -2.27650 | 241 ft | 0 kts | 185° |
| 2026-05-06 14:12 | 53.35858 | -2.27651 | 241 ft | 0 kts | 186° |
| 2026-05-06 14:12 | 53.35855 | -2.27651 | 241 ft | 3 kts | 186° |
| 2026-05-06 14:13 | 53.35812 | -2.27659 | 241 ft | 9 kts | 186° |
| 2026-05-06 14:13 | 53.35775 | -2.27664 | 240 ft | 1 kts | 184° |
| 2026-05-06 14:13 | 53.35748 | -2.27647 | 240 ft | 7 kts | 158° |
| 2026-05-06 14:13 | 53.35691 | -2.27612 | 240 ft | 10 kts | 168° |
| 2026-05-06 14:14 | 53.35628 | -2.27644 | 239 ft | 10 kts | 228° |
| 2026-05-06 14:14 | 53.35570 | -2.27738 | 238 ft | 13 kts | 224° |
| 2026-05-06 14:14 | 53.35496 | -2.27855 | 237 ft | 16 kts | 223° |
| 2026-05-06 14:14 | 53.35409 | -2.27995 | 237 ft | 20 kts | 224° |
| 2026-05-06 14:15 | 53.35323 | -2.28134 | 233 ft | 0 kts | 224° |
| 2026-05-06 14:15 | 53.35322 | -2.28136 | 233 ft | 2 kts | 224° |
| 2026-05-06 14:15 | 53.35295 | -2.28182 | 232 ft | 8 kts | 226° |
| 2026-05-06 14:15 | 53.35248 | -2.28270 | 231 ft | 12 kts | 229° |
| 2026-05-06 14:16 | 53.35189 | -2.28387 | 229 ft | 15 kts | 230° |
| 2026-05-06 14:16 | 53.35118 | -2.28534 | 228 ft | 17 kts | 232° |
| 2026-05-06 14:16 | 53.35036 | -2.28701 | 226 ft | 20 kts | 227° |
| 2026-05-06 14:16 | 53.34936 | -2.28878 | 224 ft | 22 kts | 226° |
| 2026-05-06 14:17 | 53.34829 | -2.29066 | 220 ft | 24 kts | 226° |
| 2026-05-06 14:17 | 53.34740 | -2.29247 | 218 ft | 16 kts | 235° |
| 2026-05-06 14:17 | 53.34683 | -2.29324 | 217 ft | 2 kts | 202° |
| 2026-05-06 14:17 | 53.34682 | -2.29324 | 217 ft | 0 kts | 202° |
| 2026-05-06 14:19 | 53.34674 | -2.29329 | 217 ft | 8 kts | 200° |
| 2026-05-06 14:19 | 53.34602 | -2.29327 | 216 ft | 13 kts | 178° |
| 2026-05-06 14:19 | 53.34538 | -2.29229 | 215 ft | 14 kts | 84° |
| 2026-05-06 14:19 | 53.34544 | -2.29205 | 217 ft | 2 kts | 52° |
| 2026-05-06 14:20 | 53.34675 | -2.28938 | 219 ft | 69 kts | 51° |
| 2026-05-06 14:20 | 53.35133 | -2.27994 | 233 ft | 137 kts | 51° |
| 2026-05-06 14:20 | 53.35825 | -2.26562 | 499 ft | 163 kts | 51° |
| 2026-05-06 14:20 | 53.36558 | -2.25022 | 1174 ft | 176 kts | 51° |
| 2026-05-06 14:21 | 53.37333 | -2.23379 | 1946 ft | 184 kts | 51° |
| 2026-05-06 14:21 | 53.38127 | -2.21710 | 2815 ft | 187 kts | 51° |
| 2026-05-06 14:21 | 53.39129 | -2.20339 | 3650 ft | 189 kts | 18° |
| 2026-05-06 14:21 | 53.40397 | -2.20285 | 4481 ft | 189 kts | 339° |
| 2026-05-06 14:22 | 53.41411 | -2.21587 | 5280 ft | 191 kts | 301° |
| 2026-05-06 14:22 | 53.41908 | -2.23636 | 6100 ft | 193 kts | 286° |
| 2026-05-06 14:22 | 53.42311 | -2.25807 | 6931 ft | 195 kts | 289° |
| 2026-05-06 14:22 | 53.42807 | -2.27944 | 7723 ft | 198 kts | 293° |
| 2026-05-06 14:23 | 53.43404 | -2.30104 | 8517 ft | 200 kts | 296° |
| 2026-05-06 14:23 | 53.44032 | -2.32200 | 9029 ft | 213 kts | 297° |
| 2026-05-06 14:23 | 53.44740 | -2.34482 | 9287 ft | 234 kts | 297° |
| 2026-05-06 14:23 | 53.45538 | -2.37031 | 9495 ft | 259 kts | 297° |
| 2026-05-06 14:24 | 53.46394 | -2.39844 | 9815 ft | 281 kts | 292° |
| 2026-05-06 14:24 | 53.46861 | -2.43057 | 10297 ft | 293 kts | 274° |
| 2026-05-06 14:24 | 53.46705 | -2.46629 | 10550 ft | 316 kts | 258° |
| 2026-05-06 14:24 | 53.46264 | -2.50327 | 10848 ft | 334 kts | 259° |
| 2026-05-06 14:25 | 53.45852 | -2.53950 | 11480 ft | 339 kts | 259° |
| 2026-05-06 14:25 | 53.45415 | -2.57886 | 12207 ft | 342 kts | 259° |
| 2026-05-06 14:25 | 53.44824 | -2.61680 | 12889 ft | 346 kts | 245° |
| 2026-05-06 14:25 | 53.43462 | -2.65037 | 13550 ft | 350 kts | 224° |
| 2026-05-06 14:26 | 53.41454 | -2.67337 | 14172 ft | 354 kts | 204° |
| 2026-05-06 14:26 | 53.39103 | -2.68743 | 14727 ft | 357 kts | 201° |
| 2026-05-06 14:26 | 53.36755 | -2.70182 | 15274 ft | 360 kts | 201° |
| 2026-05-06 14:26 | 53.34416 | -2.71685 | 15835 ft | 363 kts | 204° |
| 2026-05-06 14:27 | 53.32073 | -2.73181 | 16330 ft | 366 kts | 204° |
| 2026-05-06 14:27 | 53.30137 | -2.74368 | 16589 ft | 368 kts | 194° |
| 2026-05-06 14:27 | 53.27917 | -2.75685 | 17031 ft | 370 kts | 200° |
| 2026-05-06 14:27 | 53.25438 | -2.77258 | 17538 ft | 372 kts | 203° |
| 2026-05-06 14:28 | 53.23006 | -2.78777 | 17996 ft | 375 kts | 202° |
| 2026-05-06 14:28 | 53.20530 | -2.80305 | 18471 ft | 378 kts | 202° |
| 2026-05-06 14:28 | 53.18074 | -2.81829 | 18870 ft | 380 kts | 200° |
| 2026-05-06 14:28 | 53.16116 | -2.83053 | 19121 ft | 383 kts | 202° |
| 2026-05-06 14:29 | 53.13619 | -2.84608 | 19664 ft | 384 kts | 199° |
| 2026-05-06 14:29 | 53.11095 | -2.86196 | 20060 ft | 387 kts | 199° |
| 2026-05-06 14:29 | 53.09961 | -2.86850 | 20243 ft | 388 kts | 192° |
| 2026-05-06 14:29 | 53.07283 | -2.87669 | 20576 ft | 392 kts | 185° |
| 2026-05-06 14:30 | 53.04564 | -2.87531 | 20953 ft | 394 kts | 174° |
| 2026-05-06 14:30 | 53.02762 | -2.86989 | 21218 ft | 395 kts | 164° |
| 2026-05-06 14:30 | 52.99136 | -2.85913 | 21672 ft | 398 kts | 172° |
| 2026-05-06 14:30 | 52.97340 | -2.85437 | 21916 ft | 399 kts | 169° |
| 2026-05-06 14:31 | 52.94544 | -2.84678 | 22261 ft | 402 kts | 169° |
| 2026-05-06 14:31 | 52.90869 | -2.83634 | 22727 ft | 405 kts | 171° |
| 2026-05-06 14:31 | 52.88988 | -2.83121 | 22982 ft | 406 kts | 168° |
| 2026-05-06 14:31 | 52.86182 | -2.82365 | 23326 ft | 409 kts | 172° |
| 2026-05-06 14:32 | 52.83446 | -2.81660 | 23632 ft | 411 kts | 168° |
| 2026-05-06 14:32 | 52.80601 | -2.80938 | 23941 ft | 412 kts | 174° |
| 2026-05-06 14:32 | 52.77711 | -2.80168 | 24280 ft | 415 kts | 169° |
| 2026-05-06 14:32 | 52.74889 | -2.79405 | 24600 ft | 417 kts | 174° |
| 2026-05-06 14:33 | 52.72008 | -2.78646 | 24904 ft | 419 kts | 173° |
| 2026-05-06 14:33 | 52.69108 | -2.77850 | 25180 ft | 421 kts | 172° |
| 2026-05-06 14:33 | 52.66254 | -2.77113 | 25514 ft | 422 kts | 169° |
| 2026-05-06 14:33 | 52.63539 | -2.76408 | 25677 ft | 424 kts | 173° |
| 2026-05-06 14:34 | 52.60706 | -2.75905 | 25928 ft | 425 kts | 179° |
| 2026-05-06 14:34 | 52.57608 | -2.76020 | 26146 ft | 427 kts | 182° |
| 2026-05-06 14:34 | 52.54679 | -2.76335 | 26374 ft | 429 kts | 184° |
| 2026-05-06 14:34 | 52.51699 | -2.76611 | 26620 ft | 431 kts | 184° |
| 2026-05-06 14:35 | 52.48713 | -2.76886 | 26891 ft | 432 kts | 182° |
| 2026-05-06 14:35 | 52.45743 | -2.77114 | 27086 ft | 434 kts | 186° |
| 2026-05-06 14:35 | 52.42714 | -2.77338 | 27343 ft | 434 kts | 182° |
| 2026-05-06 14:35 | 52.39909 | -2.77582 | 27488 ft | 436 kts | 184° |
| 2026-05-06 14:36 | 52.36741 | -2.77869 | 27868 ft | 437 kts | 183° |
| 2026-05-06 14:36 | 52.33681 | -2.78147 | 28134 ft | 441 kts | 183° |
| 2026-05-06 14:36 | 52.30587 | -2.78422 | 28460 ft | 442 kts | 183° |
| 2026-05-06 14:36 | 52.27584 | -2.78684 | 28755 ft | 444 kts | 183° |
| 2026-05-06 14:37 | 52.24511 | -2.78949 | 29050 ft | 446 kts | 183° |
| 2026-05-06 14:37 | 52.21415 | -2.79215 | 29315 ft | 448 kts | 183° |
| 2026-05-06 14:37 | 52.18341 | -2.79478 | 29563 ft | 449 kts | 183° |
| 2026-05-06 14:37 | 52.15394 | -2.79729 | 29807 ft | 452 kts | 183° |
| 2026-05-06 14:38 | 52.12185 | -2.80004 | 30080 ft | 453 kts | 183° |
| 2026-05-06 14:38 | 52.09030 | -2.80272 | 30328 ft | 455 kts | 183° |
| 2026-05-06 14:38 | 52.06020 | -2.80528 | 30591 ft | 456 kts | 183° |
| 2026-05-06 14:38 | 52.02790 | -2.80802 | 30847 ft | 458 kts | 183° |
| 2026-05-06 14:39 | 51.99605 | -2.81071 | 31109 ft | 460 kts | 183° |
| 2026-05-06 14:39 | 51.96427 | -2.81341 | 31428 ft | 460 kts | 183° |
| 2026-05-06 14:39 | 51.93229 | -2.81612 | 31737 ft | 460 kts | 183° |
| 2026-05-06 14:39 | 51.90365 | -2.81854 | 31979 ft | 460 kts | 183° |
| 2026-05-06 14:40 | 51.87113 | -2.82129 | 32354 ft | 458 kts | 182° |
| 2026-05-06 14:40 | 51.83942 | -2.82530 | 32557 ft | 457 kts | 189° |
| 2026-05-06 14:40 | 51.80819 | -2.83200 | 32691 ft | 455 kts | 183° |
| 2026-05-06 14:40 | 51.77644 | -2.83869 | 32745 ft | 456 kts | 189° |
| 2026-05-06 14:41 | 51.74504 | -2.84531 | 32868 ft | 455 kts | 187° |
| 2026-05-06 14:41 | 51.71380 | -2.85230 | 32941 ft | 455 kts | 190° |
| 2026-05-06 14:41 | 51.65098 | -2.86639 | 33070 ft | 455 kts | 185° |
| 2026-05-06 14:42 | 51.59322 | -2.87903 | 33208 ft | 454 kts | 184° |
| 2026-05-06 14:42 | 51.56512 | -2.88567 | 33175 ft | 453 kts | 196° |
| 2026-05-06 14:42 | 51.53425 | -2.89825 | 33214 ft | 453 kts | 199° |
| 2026-05-06 14:43 | 51.50490 | -2.91566 | 33370 ft | 454 kts | 201° |
| 2026-05-06 14:43 | 51.47611 | -2.93347 | 33601 ft | 454 kts | 201° |
| 2026-05-06 14:43 | 51.44657 | -2.95137 | 33859 ft | 453 kts | 201° |
| 2026-05-06 14:43 | 51.41738 | -2.96887 | 34106 ft | 453 kts | 201° |
| 2026-05-06 14:44 | 51.38734 | -2.98681 | 34347 ft | 452 kts | 200° |
| 2026-05-06 14:44 | 51.35786 | -3.00439 | 34589 ft | 452 kts | 201° |
| 2026-05-06 14:44 | 51.32860 | -3.02183 | 34794 ft | 451 kts | 201° |
| 2026-05-06 14:45 | 51.27074 | -3.05628 | 35215 ft | 450 kts | 200° |
| 2026-05-06 14:45 | 51.24153 | -3.07362 | 35413 ft | 450 kts | 200° |
| 2026-05-06 14:45 | 51.21202 | -3.09112 | 35605 ft | 450 kts | 200° |
| 2026-05-06 14:45 | 51.18290 | -3.10838 | 35794 ft | 449 kts | 200° |
| 2026-05-06 14:46 | 51.15400 | -3.12549 | 35955 ft | 449 kts | 200° |
| 2026-05-06 14:46 | 51.12476 | -3.14280 | 36109 ft | 449 kts | 200° |
| 2026-05-06 14:46 | 51.09548 | -3.16007 | 36239 ft | 450 kts | 200° |
| 2026-05-06 14:46 | 51.06553 | -3.17771 | 36384 ft | 450 kts | 200° |
| 2026-05-06 14:47 | 51.03652 | -3.19478 | 36571 ft | 449 kts | 200° |
| 2026-05-06 14:47 | 51.00680 | -3.21225 | 36708 ft | 449 kts | 200° |
| 2026-05-06 14:47 | 50.97735 | -3.22953 | 36840 ft | 449 kts | 200° |
| 2026-05-06 14:47 | 50.94830 | -3.24657 | 36949 ft | 449 kts | 200° |
| 2026-05-06 14:48 | 50.91900 | -3.26373 | 36995 ft | 450 kts | 200° |
| 2026-05-06 14:48 | 50.86016 | -3.29813 | 36997 ft | 449 kts | 200° |
| 2026-05-06 14:49 | 50.80167 | -3.33223 | 36996 ft | 448 kts | 200° |
| 2026-05-06 14:49 | 50.74347 | -3.36607 | 36996 ft | 448 kts | 200° |
| 2026-05-06 14:50 | 50.68580 | -3.39951 | 36998 ft | 448 kts | 200° |
| 2026-05-06 14:50 | 50.62875 | -3.43250 | 36973 ft | 447 kts | 200° |
| 2026-05-06 14:51 | 50.56984 | -3.46166 | 36962 ft | 447 kts | 192° |
| 2026-05-06 14:51 | 50.50977 | -3.47520 | 36987 ft | 445 kts | 186° |
| 2026-05-06 14:52 | 50.44795 | -3.48523 | 37009 ft | 446 kts | 187° |
| 2026-05-06 14:52 | 50.38723 | -3.50486 | 37019 ft | 448 kts | 197° |
| 2026-05-06 14:53 | 50.32912 | -3.54094 | 37025 ft | 448 kts | 204° |
| 2026-05-06 14:53 | 50.27274 | -3.58034 | 37017 ft | 447 kts | 204° |
| 2026-05-06 14:54 | 50.22564 | -3.61273 | 36985 ft | 448 kts | 204° |
| 2026-05-06 14:54 | 50.15935 | -3.65811 | 37009 ft | 445 kts | 204° |
| 2026-05-06 14:55 | 50.11147 | -3.69083 | 36976 ft | 445 kts | 204° |
| 2026-05-06 14:55 | 50.05511 | -3.72923 | 36975 ft | 444 kts | 204° |
| 2026-05-06 14:56 | 49.99821 | -3.76789 | 37013 ft | 447 kts | 204° |
| 2026-05-06 14:56 | 49.94175 | -3.80616 | 37015 ft | 447 kts | 204° |
| 2026-05-06 14:57 | 49.88470 | -3.84472 | 37019 ft | 447 kts | 204° |
| 2026-05-06 14:57 | 49.82764 | -3.88319 | 37019 ft | 447 kts | 204° |
| 2026-05-06 14:58 | 49.77071 | -3.92148 | 37020 ft | 447 kts | 204° |
| 2026-05-06 14:58 | 49.71488 | -3.95894 | 36966 ft | 450 kts | 204° |
| 2026-05-06 14:59 | 49.65794 | -3.99703 | 36991 ft | 448 kts | 204° |
| 2026-05-06 14:59 | 49.60300 | -4.03275 | 36986 ft | 446 kts | 202° |
| 2026-05-06 15:00 | 49.54481 | -4.06920 | 37001 ft | 448 kts | 202° |
| 2026-05-06 15:00 | 49.48698 | -4.10571 | 36998 ft | 446 kts | 202° |
| 2026-05-06 15:01 | 49.42949 | -4.14206 | 36985 ft | 449 kts | 202° |
| 2026-05-06 15:01 | 49.37190 | -4.17835 | 37030 ft | 447 kts | 202° |
| 2026-05-06 15:02 | 49.31382 | -4.21485 | 36961 ft | 448 kts | 202° |
| 2026-05-06 15:02 | 49.25788 | -4.24988 | 37043 ft | 446 kts | 202° |
| 2026-05-06 15:03 | 49.20034 | -4.28584 | 36954 ft | 448 kts | 202° |
| 2026-05-06 15:03 | 49.14255 | -4.32189 | 37050 ft | 447 kts | 202° |
| 2026-05-06 15:04 | 49.08435 | -4.35811 | 36955 ft | 448 kts | 202° |
| 2026-05-06 15:04 | 49.02672 | -4.39392 | 37033 ft | 447 kts | 202° |
| 2026-05-06 15:05 | 48.96897 | -4.42972 | 36973 ft | 447 kts | 202° |
| 2026-05-06 15:05 | 48.91144 | -4.46524 | 37007 ft | 448 kts | 202° |
| 2026-05-06 15:06 | 48.85334 | -4.50101 | 37000 ft | 446 kts | 202° |
| 2026-05-06 15:06 | 48.79806 | -4.53493 | 37000 ft | 450 kts | 202° |
| 2026-05-06 15:07 | 48.73992 | -4.57061 | 37000 ft | 446 kts | 202° |
| 2026-05-06 15:07 | 48.68232 | -4.60585 | 36989 ft | 448 kts | 202° |
| 2026-05-06 15:08 | 48.62570 | -4.64038 | 36998 ft | 446 kts | 202° |
| 2026-05-06 15:08 | 48.56784 | -4.67555 | 36985 ft | 448 kts | 202° |
| 2026-05-06 15:09 | 48.50988 | -4.71071 | 37043 ft | 450 kts | 202° |
| 2026-05-06 15:09 | 48.45192 | -4.74581 | 36953 ft | 448 kts | 202° |
| 2026-05-06 15:10 | 48.39409 | -4.78073 | 37053 ft | 447 kts | 202° |
| 2026-05-06 15:10 | 48.33659 | -4.81537 | 36953 ft | 447 kts | 202° |
| 2026-05-06 15:11 | 48.27929 | -4.84984 | 37052 ft | 447 kts | 202° |
| 2026-05-06 15:11 | 48.22160 | -4.88447 | 36965 ft | 450 kts | 202° |
| 2026-05-06 15:12 | 48.16369 | -4.91911 | 37015 ft | 447 kts | 202° |
| 2026-05-06 15:12 | 48.10714 | -4.95284 | 36976 ft | 446 kts | 202° |
| 2026-05-06 15:13 | 48.04929 | -4.98723 | 37001 ft | 448 kts | 201° |
| 2026-05-06 15:13 | 47.99174 | -5.02133 | 37003 ft | 446 kts | 202° |
| 2026-05-06 15:14 | 47.93424 | -5.05554 | 36991 ft | 448 kts | 202° |
| 2026-05-06 15:14 | 47.88692 | -5.08355 | 36932 ft | 446 kts | 205° |
| 2026-05-06 15:15 | 47.82006 | -5.12284 | 37000 ft | 446 kts | 202° |
| 2026-05-06 15:15 | 47.77186 | -5.15118 | 36959 ft | 447 kts | 201° |
| 2026-05-06 15:16 | 47.71396 | -5.18517 | 37036 ft | 447 kts | 201° |
| 2026-05-06 15:16 | 47.65594 | -5.21914 | 36974 ft | 446 kts | 202° |
| 2026-05-06 15:17 | 47.59920 | -5.25230 | 37009 ft | 448 kts | 201° |
| 2026-05-06 15:17 | 47.54108 | -5.28619 | 37010 ft | 447 kts | 201° |
| 2026-05-06 15:18 | 47.48317 | -5.31985 | 36982 ft | 448 kts | 201° |
| 2026-05-06 15:18 | 47.42482 | -5.35372 | 37029 ft | 446 kts | 202° |
| 2026-05-06 15:19 | 47.36666 | -5.38738 | 36958 ft | 448 kts | 201° |
| 2026-05-06 15:19 | 47.30940 | -5.42044 | 37042 ft | 446 kts | 201° |
| 2026-05-06 15:20 | 47.25111 | -5.45399 | 36954 ft | 449 kts | 201° |
| 2026-05-06 15:20 | 47.19298 | -5.48732 | 37031 ft | 447 kts | 201° |
| 2026-05-06 15:21 | 47.13498 | -5.52060 | 36983 ft | 447 kts | 201° |
| 2026-05-06 15:21 | 47.07684 | -5.55391 | 37002 ft | 448 kts | 201° |
| 2026-05-06 15:22 | 47.01882 | -5.58703 | 37010 ft | 446 kts | 201° |
| 2026-05-06 15:22 | 46.96091 | -5.61999 | 36974 ft | 450 kts | 201° |
| 2026-05-06 15:23 | 46.90330 | -5.65271 | 37030 ft | 446 kts | 201° |
| 2026-05-06 15:23 | 46.84512 | -5.68566 | 37018 ft | 448 kts | 201° |
| 2026-05-06 15:24 | 46.78692 | -5.71855 | 37018 ft | 447 kts | 201° |
| 2026-05-06 15:24 | 46.72885 | -5.75130 | 37012 ft | 448 kts | 201° |
| 2026-05-06 15:25 | 46.67114 | -5.78376 | 37005 ft | 448 kts | 201° |
| 2026-05-06 15:25 | 46.61269 | -5.81657 | 37042 ft | 447 kts | 201° |
| 2026-05-06 15:26 | 46.55494 | -5.85152 | 36963 ft | 448 kts | 204° |
| 2026-05-06 15:26 | 46.49821 | -5.88894 | 37008 ft | 448 kts | 204° |
| 2026-05-06 15:27 | 46.44168 | -5.92550 | 37009 ft | 446 kts | 204° |
| 2026-05-06 15:27 | 46.38461 | -5.96194 | 36963 ft | 448 kts | 204° |
| 2026-05-06 15:28 | 46.32752 | -5.99826 | 37005 ft | 448 kts | 204° |
| 2026-05-06 15:28 | 46.27068 | -6.03435 | 36987 ft | 447 kts | 204° |
| 2026-05-06 15:29 | 46.21394 | -6.07030 | 36964 ft | 446 kts | 204° |
| 2026-05-06 15:29 | 46.15744 | -6.10602 | 37021 ft | 444 kts | 204° |
| 2026-05-06 15:30 | 46.10039 | -6.14200 | 37003 ft | 444 kts | 204° |
| 2026-05-06 15:30 | 46.04360 | -6.17774 | 36971 ft | 447 kts | 204° |
| 2026-05-06 15:31 | 45.98630 | -6.21372 | 36983 ft | 448 kts | 204° |
| 2026-05-06 15:31 | 45.93014 | -6.24890 | 36981 ft | 448 kts | 204° |
| 2026-05-06 15:32 | 45.84374 | -6.30287 | 36997 ft | 447 kts | 204° |
| 2026-05-06 15:32 | 45.78680 | -6.33835 | 37000 ft | 446 kts | 204° |
| 2026-05-06 15:33 | 45.72988 | -6.37373 | 36989 ft | 445 kts | 204° |
| 2026-05-06 15:33 | 45.67330 | -6.40882 | 36976 ft | 445 kts | 204° |
| 2026-05-06 15:34 | 45.61755 | -6.44332 | 36972 ft | 444 kts | 204° |
| 2026-05-06 15:34 | 45.56077 | -6.47838 | 36971 ft | 444 kts | 204° |
| 2026-05-06 15:35 | 45.50416 | -6.51326 | 36977 ft | 444 kts | 204° |
| 2026-05-06 15:35 | 45.44720 | -6.54827 | 36985 ft | 445 kts | 204° |
| 2026-05-06 15:36 | 45.39009 | -6.58331 | 36984 ft | 445 kts | 203° |
| 2026-05-06 15:36 | 45.33312 | -6.61817 | 36984 ft | 446 kts | 203° |
| 2026-05-06 15:37 | 45.27602 | -6.65304 | 36991 ft | 447 kts | 203° |
| 2026-05-06 15:37 | 45.21903 | -6.68777 | 37001 ft | 447 kts | 203° |
| 2026-05-06 15:38 | 45.16166 | -6.72265 | 37007 ft | 448 kts | 203° |
| 2026-05-06 15:38 | 45.10429 | -6.75746 | 37007 ft | 449 kts | 203° |
| 2026-05-06 15:39 | 45.04706 | -6.79210 | 37009 ft | 449 kts | 203° |
| 2026-05-06 15:39 | 44.98959 | -6.82682 | 37003 ft | 447 kts | 203° |
| 2026-05-06 15:40 | 44.93240 | -6.86128 | 37002 ft | 448 kts | 203° |
| 2026-05-06 15:40 | 44.87506 | -6.89578 | 36999 ft | 448 kts | 203° |
| 2026-05-06 15:41 | 44.81703 | -6.92747 | 36995 ft | 448 kts | 197° |
| 2026-05-06 15:41 | 44.75701 | -6.95131 | 36999 ft | 448 kts | 196° |
| 2026-05-06 15:42 | 44.70713 | -6.97141 | 36998 ft | 448 kts | 196° |
| 2026-05-06 15:42 | 44.63719 | -6.99963 | 37011 ft | 448 kts | 196° |
| 2026-05-06 15:43 | 44.58713 | -7.01977 | 37009 ft | 448 kts | 196° |
| 2026-05-06 15:43 | 44.52718 | -7.04382 | 37011 ft | 448 kts | 196° |
| 2026-05-06 15:44 | 44.46700 | -7.06791 | 37007 ft | 449 kts | 196° |
| 2026-05-06 15:44 | 44.40685 | -7.09194 | 37002 ft | 449 kts | 196° |
| 2026-05-06 15:45 | 44.34677 | -7.11588 | 37003 ft | 448 kts | 196° |
| 2026-05-06 15:45 | 44.28676 | -7.13975 | 37008 ft | 448 kts | 196° |
| 2026-05-06 15:46 | 44.22714 | -7.16341 | 37008 ft | 448 kts | 196° |
| 2026-05-06 15:46 | 44.16695 | -7.18725 | 37001 ft | 448 kts | 196° |
| 2026-05-06 15:47 | 44.10713 | -7.21089 | 36997 ft | 448 kts | 196° |
| 2026-05-06 15:47 | 44.04705 | -7.23459 | 36996 ft | 448 kts | 196° |
| 2026-05-06 15:48 | 43.98718 | -7.25815 | 37002 ft | 447 kts | 196° |
| 2026-05-06 15:48 | 43.92733 | -7.28166 | 37003 ft | 447 kts | 196° |
| 2026-05-06 15:49 | 43.86731 | -7.30518 | 36998 ft | 447 kts | 196° |
| 2026-05-06 15:49 | 43.80743 | -7.32860 | 36992 ft | 447 kts | 196° |
| 2026-05-06 15:50 | 43.74760 | -7.35195 | 36989 ft | 447 kts | 196° |
| 2026-05-06 15:50 | 43.68774 | -7.37526 | 36992 ft | 447 kts | 196° |
| 2026-05-06 15:51 | 43.62782 | -7.39855 | 36996 ft | 447 kts | 196° |
| 2026-05-06 15:51 | 43.56816 | -7.42168 | 37015 ft | 448 kts | 196° |
| 2026-05-06 15:52 | 43.50787 | -7.44502 | 37011 ft | 448 kts | 196° |
| 2026-05-06 15:52 | 43.44810 | -7.46811 | 37000 ft | 452 kts | 196° |
| 2026-05-06 15:53 | 43.38749 | -7.49147 | 36990 ft | 452 kts | 196° |
| 2026-05-06 15:53 | 43.32690 | -7.51477 | 36983 ft | 452 kts | 196° |
| 2026-05-06 15:54 | 43.26708 | -7.53773 | 36988 ft | 452 kts | 196° |
| 2026-05-06 15:54 | 43.20671 | -7.56085 | 36981 ft | 452 kts | 196° |
| 2026-05-06 15:55 | 43.14626 | -7.58397 | 37005 ft | 453 kts | 195° |
| 2026-05-06 15:55 | 43.08578 | -7.60704 | 37016 ft | 450 kts | 195° |
| 2026-05-06 15:56 | 43.02509 | -7.63016 | 37010 ft | 451 kts | 195° |
| 2026-05-06 15:56 | 42.96472 | -7.65309 | 37002 ft | 451 kts | 195° |
| 2026-05-06 15:57 | 42.90385 | -7.67617 | 36992 ft | 452 kts | 195° |
| 2026-05-06 15:57 | 42.84348 | -7.69901 | 36987 ft | 451 kts | 195° |
| 2026-05-06 15:58 | 42.78308 | -7.72182 | 36986 ft | 450 kts | 195° |
| 2026-05-06 15:58 | 42.72249 | -7.74465 | 36993 ft | 449 kts | 195° |
| 2026-05-06 15:59 | 42.66348 | -7.76685 | 36995 ft | 449 kts | 195° |
| 2026-05-06 15:59 | 42.60281 | -7.78962 | 36983 ft | 449 kts | 195° |
| 2026-05-06 16:00 | 42.54219 | -7.81233 | 36971 ft | 449 kts | 195° |
| 2026-05-06 16:00 | 42.48238 | -7.83469 | 36972 ft | 449 kts | 195° |
| 2026-05-06 16:01 | 42.42202 | -7.85720 | 36987 ft | 449 kts | 195° |
| 2026-05-06 16:01 | 42.36143 | -7.87977 | 37002 ft | 449 kts | 195° |
| 2026-05-06 16:02 | 42.30172 | -7.90196 | 37006 ft | 450 kts | 195° |
| 2026-05-06 16:02 | 42.24170 | -7.92422 | 36996 ft | 451 kts | 195° |
| 2026-05-06 16:03 | 42.18152 | -7.94650 | 36993 ft | 452 kts | 195° |
| 2026-05-06 16:03 | 42.12090 | -7.96890 | 36984 ft | 452 kts | 195° |
| 2026-05-06 16:04 | 42.05974 | -7.99144 | 36982 ft | 452 kts | 195° |
| 2026-05-06 16:04 | 41.99946 | -8.01362 | 36987 ft | 451 kts | 195° |
| 2026-05-06 16:05 | 41.93874 | -8.03592 | 37008 ft | 451 kts | 195° |
| 2026-05-06 16:05 | 41.87812 | -8.05815 | 37020 ft | 451 kts | 195° |
| 2026-05-06 16:06 | 41.81710 | -8.07990 | 36988 ft | 452 kts | 192° |
| 2026-05-06 16:06 | 41.75574 | -8.09289 | 36985 ft | 454 kts | 188° |
| 2026-05-06 16:07 | 41.69250 | -8.10533 | 36982 ft | 451 kts | 188° |
| 2026-05-06 16:07 | 41.63106 | -8.11751 | 36982 ft | 451 kts | 188° |
| 2026-05-06 16:08 | 41.56880 | -8.12977 | 36988 ft | 450 kts | 188° |
| 2026-05-06 16:08 | 41.50696 | -8.14326 | 36994 ft | 452 kts | 191° |
| 2026-05-06 16:09 | 41.44498 | -8.15871 | 36966 ft | 450 kts | 191° |
| 2026-05-06 16:09 | 41.38320 | -8.17374 | 36981 ft | 451 kts | 190° |
| 2026-05-06 16:10 | 41.32186 | -8.18843 | 36983 ft | 450 kts | 190° |
| 2026-05-06 16:10 | 41.26018 | -8.20310 | 37159 ft | 451 kts | 190° |
| 2026-05-06 16:11 | 41.22940 | -8.21043 | 37329 ft | 451 kts | 190° |
| 2026-05-06 16:11 | 41.19856 | -8.21776 | 37461 ft | 451 kts | 190° |
| 2026-05-06 16:11 | 41.16752 | -8.22514 | 37575 ft | 451 kts | 190° |
| 2026-05-06 16:11 | 41.13655 | -8.23250 | 37774 ft | 450 kts | 190° |
| 2026-05-06 16:12 | 41.10589 | -8.23978 | 37919 ft | 449 kts | 190° |
| 2026-05-06 16:12 | 41.07525 | -8.24705 | 38018 ft | 450 kts | 190° |
| 2026-05-06 16:12 | 41.04417 | -8.25441 | 38165 ft | 449 kts | 190° |
| 2026-05-06 16:12 | 41.01326 | -8.26172 | 38216 ft | 451 kts | 190° |
| 2026-05-06 16:13 | 40.98265 | -8.26896 | 38327 ft | 451 kts | 190° |
| 2026-05-06 16:13 | 40.95185 | -8.27624 | 38413 ft | 452 kts | 190° |
| 2026-05-06 16:13 | 40.92084 | -8.28356 | 38524 ft | 451 kts | 190° |
| 2026-05-06 16:13 | 40.88982 | -8.29089 | 38620 ft | 452 kts | 190° |
| 2026-05-06 16:14 | 40.82771 | -8.30552 | 38740 ft | 453 kts | 190° |
| 2026-05-06 16:14 | 40.76563 | -8.32011 | 38958 ft | 452 kts | 190° |
| 2026-05-06 16:15 | 40.70416 | -8.33452 | 39002 ft | 450 kts | 190° |
| 2026-05-06 16:15 | 40.64196 | -8.34908 | 39005 ft | 451 kts | 190° |
| 2026-05-06 16:16 | 40.58048 | -8.36345 | 39000 ft | 449 kts | 190° |
| 2026-05-06 16:16 | 40.52877 | -8.37551 | 38999 ft | 449 kts | 190° |
| 2026-05-06 16:17 | 40.46745 | -8.38979 | 39003 ft | 449 kts | 190° |
| 2026-05-06 16:17 | 40.40595 | -8.40408 | 39005 ft | 449 kts | 190° |
| 2026-05-06 16:18 | 40.34470 | -8.41829 | 39000 ft | 450 kts | 190° |
| 2026-05-06 16:18 | 40.28280 | -8.43262 | 39000 ft | 450 kts | 190° |
| 2026-05-06 16:19 | 40.22114 | -8.44688 | 38998 ft | 450 kts | 190° |
| 2026-05-06 16:19 | 40.15953 | -8.46109 | 38995 ft | 449 kts | 190° |
| 2026-05-06 16:20 | 40.09830 | -8.47519 | 39010 ft | 449 kts | 190° |
| 2026-05-06 16:20 | 40.03656 | -8.48938 | 39003 ft | 451 kts | 190° |
| 2026-05-06 16:21 | 39.97462 | -8.50358 | 39004 ft | 450 kts | 190° |
| 2026-05-06 16:21 | 39.91258 | -8.51779 | 38991 ft | 449 kts | 190° |
| 2026-05-06 16:22 | 39.85176 | -8.53169 | 38991 ft | 448 kts | 190° |
| 2026-05-06 16:22 | 39.78988 | -8.54582 | 38983 ft | 448 kts | 190° |
| 2026-05-06 16:23 | 39.72861 | -8.55977 | 38973 ft | 447 kts | 190° |
| 2026-05-06 16:23 | 39.66716 | -8.57374 | 38966 ft | 447 kts | 190° |
| 2026-05-06 16:24 | 39.60603 | -8.58762 | 38965 ft | 447 kts | 190° |
| 2026-05-06 16:24 | 39.54481 | -8.60149 | 38995 ft | 447 kts | 190° |
| 2026-05-06 16:25 | 39.48326 | -8.61540 | 38998 ft | 449 kts | 190° |
| 2026-05-06 16:25 | 39.42182 | -8.62927 | 38999 ft | 449 kts | 190° |
| 2026-05-06 16:26 | 39.35988 | -8.64323 | 39009 ft | 448 kts | 190° |
| 2026-05-06 16:26 | 39.29882 | -8.65696 | 39015 ft | 448 kts | 190° |
| 2026-05-06 16:27 | 39.23733 | -8.67077 | 39027 ft | 447 kts | 190° |
| 2026-05-06 16:27 | 39.17619 | -8.68448 | 39010 ft | 446 kts | 190° |
| 2026-05-06 16:28 | 39.11491 | -8.69819 | 38995 ft | 446 kts | 190° |
| 2026-05-06 16:28 | 39.05370 | -8.71185 | 38988 ft | 445 kts | 190° |
| 2026-05-06 16:29 | 38.99233 | -8.72552 | 38984 ft | 445 kts | 190° |
| 2026-05-06 16:29 | 38.93159 | -8.73905 | 38972 ft | 445 kts | 190° |
| 2026-05-06 16:30 | 38.88025 | -8.75045 | 38987 ft | 445 kts | 190° |
| 2026-05-06 16:30 | 38.80927 | -8.76620 | 38965 ft | 446 kts | 190° |
| 2026-05-06 16:31 | 38.74826 | -8.77970 | 38961 ft | 446 kts | 190° |
| 2026-05-06 16:31 | 38.68719 | -8.79317 | 38972 ft | 447 kts | 190° |
| 2026-05-06 16:32 | 38.62553 | -8.80676 | 38992 ft | 447 kts | 190° |
| 2026-05-06 16:32 | 38.56397 | -8.82032 | 39006 ft | 447 kts | 190° |
| 2026-05-06 16:33 | 38.50254 | -8.83383 | 39008 ft | 448 kts | 190° |
| 2026-05-06 16:34 | 38.40984 | -8.85416 | 38998 ft | 450 kts | 190° |
| 2026-05-06 16:34 | 38.34850 | -8.86759 | 39000 ft | 448 kts | 190° |
| 2026-05-06 16:35 | 38.28715 | -8.88100 | 38996 ft | 449 kts | 190° |
| 2026-05-06 16:35 | 38.22551 | -8.89444 | 38996 ft | 449 kts | 190° |
| 2026-05-06 16:36 | 38.16426 | -8.90778 | 38990 ft | 449 kts | 190° |
| 2026-05-06 16:36 | 38.10271 | -8.92116 | 38999 ft | 450 kts | 190° |
| 2026-05-06 16:37 | 38.04076 | -8.93461 | 38986 ft | 450 kts | 190° |
| 2026-05-06 16:37 | 37.97924 | -8.94793 | 38981 ft | 448 kts | 190° |
| 2026-05-06 16:38 | 37.91821 | -8.96113 | 38987 ft | 448 kts | 190° |
| 2026-05-06 16:38 | 37.85621 | -8.97452 | 38990 ft | 448 kts | 190° |
| 2026-05-06 16:39 | 37.79496 | -8.98776 | 38997 ft | 448 kts | 190° |
| 2026-05-06 16:39 | 37.73345 | -9.00102 | 39006 ft | 448 kts | 190° |
| 2026-05-06 16:40 | 37.67205 | -9.01421 | 39006 ft | 447 kts | 190° |
| 2026-05-06 16:40 | 37.61070 | -9.02737 | 39009 ft | 447 kts | 190° |
| 2026-05-06 16:41 | 37.54912 | -9.04056 | 39010 ft | 447 kts | 190° |
| 2026-05-06 16:41 | 37.48751 | -9.05370 | 39005 ft | 447 kts | 189° |
| 2026-05-06 16:42 | 37.42627 | -9.06674 | 38994 ft | 448 kts | 189° |
| 2026-05-06 16:42 | 37.36509 | -9.07976 | 38984 ft | 448 kts | 189° |
| 2026-05-06 16:43 | 37.31382 | -9.09067 | 38998 ft | 447 kts | 189° |
| 2026-05-06 16:43 | 37.25190 | -9.10382 | 38995 ft | 448 kts | 189° |
| 2026-05-06 16:44 | 37.18040 | -9.11898 | 38997 ft | 447 kts | 189° |
| 2026-05-06 16:44 | 37.12905 | -9.12985 | 38990 ft | 448 kts | 189° |
| 2026-05-06 16:45 | 37.05731 | -9.14501 | 39003 ft | 448 kts | 189° |
| 2026-05-06 16:45 | 37.00606 | -9.15582 | 39011 ft | 448 kts | 189° |
| 2026-05-06 16:46 | 36.94440 | -9.16881 | 39009 ft | 448 kts | 189° |
| 2026-05-06 16:46 | 36.88316 | -9.18171 | 39023 ft | 448 kts | 189° |
| 2026-05-06 16:47 | 36.82124 | -9.19474 | 39023 ft | 449 kts | 189° |
| 2026-05-06 16:47 | 36.75995 | -9.20760 | 39003 ft | 449 kts | 189° |
| 2026-05-06 16:48 | 36.69812 | -9.22054 | 39003 ft | 449 kts | 189° |
| 2026-05-06 16:48 | 36.63819 | -9.23306 | 39020 ft | 449 kts | 189° |
| 2026-05-06 16:49 | 36.57875 | -9.24545 | 39033 ft | 448 kts | 189° |
| 2026-05-06 16:49 | 36.51732 | -9.25822 | 39018 ft | 448 kts | 189° |
| 2026-05-06 16:50 | 36.38876 | -9.28493 | 39009 ft | 448 kts | 189° |
| 2026-05-06 16:51 | 36.32631 | -9.29787 | 39002 ft | 448 kts | 189° |
| 2026-05-06 16:51 | 36.26467 | -9.31062 | 39014 ft | 447 kts | 189° |
| 2026-05-06 16:52 | 36.20332 | -9.32330 | 39012 ft | 447 kts | 189° |
| 2026-05-06 16:52 | 36.14173 | -9.33600 | 39021 ft | 448 kts | 189° |
| 2026-05-06 16:53 | 36.08040 | -9.34864 | 39015 ft | 448 kts | 189° |
| 2026-05-06 16:53 | 36.01889 | -9.36131 | 39007 ft | 448 kts | 190° |
| 2026-05-06 16:53 | 35.98915 | -9.37104 | 38998 ft | 447 kts | 202° |
| 2026-05-06 16:54 | 35.96106 | -9.38728 | 38991 ft | 446 kts | 207° |
| 2026-05-06 16:54 | 35.90529 | -9.42221 | 38982 ft | 447 kts | 207° |
| 2026-05-06 16:55 | 35.84990 | -9.45643 | 38987 ft | 447 kts | 206° |
| 2026-05-06 16:55 | 35.79429 | -9.49047 | 38993 ft | 447 kts | 206° |
| 2026-05-06 16:56 | 35.73870 | -9.52439 | 38997 ft | 447 kts | 206° |
| 2026-05-06 16:56 | 35.68274 | -9.55850 | 39010 ft | 448 kts | 206° |
| 2026-05-06 16:57 | 35.62683 | -9.59252 | 39004 ft | 448 kts | 206° |
| 2026-05-06 16:57 | 35.57117 | -9.62631 | 39009 ft | 449 kts | 206° |
| 2026-05-06 16:58 | 35.52392 | -9.65495 | 39029 ft | 449 kts | 206° |
| 2026-05-06 16:58 | 35.45952 | -9.69394 | 39004 ft | 447 kts | 206° |
| 2026-05-06 16:59 | 35.41278 | -9.72218 | 39010 ft | 447 kts | 206° |
| 2026-05-06 16:59 | 35.35673 | -9.75600 | 39006 ft | 447 kts | 206° |
| 2026-05-06 17:00 | 35.30165 | -9.78919 | 39015 ft | 447 kts | 206° |
| 2026-05-06 17:00 | 35.24523 | -9.82314 | 39031 ft | 448 kts | 206° |
| 2026-05-06 17:01 | 35.19020 | -9.85619 | 38986 ft | 448 kts | 206° |
| 2026-05-06 17:01 | 35.13472 | -9.88946 | 38980 ft | 447 kts | 206° |
| 2026-05-06 17:02 | 35.07877 | -9.92297 | 38987 ft | 448 kts | 206° |
| 2026-05-06 17:02 | 35.02288 | -9.95638 | 38988 ft | 448 kts | 206° |
| 2026-05-06 17:03 | 34.96675 | -9.98989 | 38989 ft | 448 kts | 206° |
| 2026-05-06 17:03 | 34.91079 | -10.02325 | 38989 ft | 448 kts | 206° |
| 2026-05-06 17:04 | 34.85468 | -10.05665 | 39003 ft | 447 kts | 206° |
| 2026-05-06 17:04 | 34.79873 | -10.08990 | 39006 ft | 447 kts | 206° |
| 2026-05-06 17:05 | 34.74268 | -10.12315 | 39005 ft | 448 kts | 206° |
| 2026-05-06 17:05 | 34.68646 | -10.15646 | 39007 ft | 448 kts | 206° |
| 2026-05-06 17:06 | 34.63081 | -10.18938 | 38996 ft | 448 kts | 206° |
| 2026-05-06 17:06 | 34.57434 | -10.22274 | 38995 ft | 448 kts | 206° |
| 2026-05-06 17:07 | 34.51876 | -10.25552 | 39004 ft | 448 kts | 206° |
| 2026-05-06 17:07 | 34.46249 | -10.28866 | 39013 ft | 448 kts | 206° |
| 2026-05-06 17:08 | 34.40618 | -10.32177 | 39004 ft | 448 kts | 206° |
| 2026-05-06 17:08 | 34.35048 | -10.35447 | 39003 ft | 448 kts | 206° |
| 2026-05-06 17:09 | 34.29418 | -10.38748 | 39000 ft | 448 kts | 206° |
| 2026-05-06 17:09 | 34.23832 | -10.42018 | 39001 ft | 448 kts | 206° |
| 2026-05-06 17:10 | 34.18222 | -10.45297 | 39005 ft | 448 kts | 206° |
| 2026-05-06 17:10 | 34.12606 | -10.48575 | 39007 ft | 448 kts | 206° |
| 2026-05-06 17:11 | 34.06984 | -10.51851 | 39001 ft | 448 kts | 206° |
| 2026-05-06 17:11 | 34.01373 | -10.55116 | 38997 ft | 448 kts | 206° |
| 2026-05-06 17:12 | 33.95791 | -10.58360 | 39001 ft | 448 kts | 206° |
| 2026-05-06 17:12 | 33.90142 | -10.61638 | 38996 ft | 447 kts | 206° |
| 2026-05-06 17:13 | 33.84563 | -10.64870 | 39001 ft | 447 kts | 206° |
| 2026-05-06 17:13 | 33.78983 | -10.68098 | 39002 ft | 447 kts | 206° |
| 2026-05-06 17:14 | 33.73317 | -10.71371 | 38993 ft | 448 kts | 206° |
| 2026-05-06 17:14 | 33.67675 | -10.74627 | 38988 ft | 448 kts | 206° |
| 2026-05-06 17:15 | 33.62288 | -10.77730 | 39005 ft | 447 kts | 206° |
| 2026-05-06 17:15 | 33.56629 | -10.80985 | 38991 ft | 447 kts | 206° |
| 2026-05-06 17:16 | 33.51005 | -10.84214 | 38988 ft | 447 kts | 206° |
| 2026-05-06 17:16 | 33.45382 | -10.87438 | 38997 ft | 447 kts | 206° |
| 2026-05-06 17:17 | 33.39762 | -10.90657 | 39002 ft | 447 kts | 206° |
| 2026-05-06 17:17 | 33.34162 | -10.93859 | 39002 ft | 447 kts | 206° |
| 2026-05-06 17:18 | 33.28545 | -10.97067 | 38994 ft | 448 kts | 206° |
| 2026-05-06 17:18 | 33.22947 | -11.00258 | 38998 ft | 448 kts | 206° |
| 2026-05-06 17:19 | 33.17285 | -11.03483 | 39000 ft | 448 kts | 206° |
| 2026-05-06 17:19 | 33.11674 | -11.06673 | 39012 ft | 448 kts | 206° |
| 2026-05-06 17:20 | 33.06032 | -11.09877 | 39000 ft | 448 kts | 206° |
| 2026-05-06 17:20 | 33.00388 | -11.13076 | 38999 ft | 448 kts | 205° |
| 2026-05-06 17:21 | 32.94793 | -11.16244 | 39000 ft | 448 kts | 205° |
| 2026-05-06 17:21 | 32.89132 | -11.19444 | 39006 ft | 448 kts | 205° |
| 2026-05-06 17:22 | 32.83575 | -11.22582 | 39011 ft | 448 kts | 205° |
| 2026-05-06 17:22 | 32.77888 | -11.25788 | 39004 ft | 448 kts | 205° |
| 2026-05-06 17:23 | 32.72218 | -11.28980 | 39001 ft | 448 kts | 205° |
| 2026-05-06 17:23 | 32.66627 | -11.32123 | 38995 ft | 448 kts | 205° |
| 2026-05-06 17:24 | 32.60918 | -11.35177 | 39004 ft | 448 kts | 202° |
| 2026-05-06 17:24 | 32.55196 | -11.37977 | 39000 ft | 448 kts | 203° |
| 2026-05-06 17:25 | 32.49409 | -11.40867 | 39006 ft | 447 kts | 203° |
| 2026-05-06 17:25 | 32.43768 | -11.43675 | 38997 ft | 447 kts | 203° |
| 2026-05-06 17:26 | 32.38019 | -11.46526 | 38958 ft | 448 kts | 203° |
| 2026-05-06 17:26 | 32.32309 | -11.49351 | 39040 ft | 446 kts | 203° |
| 2026-05-06 17:27 | 32.26677 | -11.52135 | 38955 ft | 448 kts | 203° |
| 2026-05-06 17:27 | 32.21857 | -11.54513 | 39026 ft | 446 kts | 203° |
| 2026-05-06 17:28 | 32.16132 | -11.57336 | 38952 ft | 447 kts | 203° |
| 2026-05-06 17:28 | 32.10366 | -11.60173 | 38982 ft | 447 kts | 203° |
| 2026-05-06 17:29 | 32.04658 | -11.62979 | 38991 ft | 447 kts | 203° |
| 2026-05-06 17:29 | 31.98979 | -11.65767 | 38969 ft | 448 kts | 203° |
| 2026-05-06 17:30 | 31.93203 | -11.68597 | 38998 ft | 447 kts | 203° |
| 2026-05-06 17:30 | 31.87393 | -11.71442 | 39003 ft | 447 kts | 202° |
| 2026-05-06 17:31 | 31.81627 | -11.74258 | 38994 ft | 447 kts | 202° |
| 2026-05-06 17:31 | 31.75874 | -11.77066 | 38991 ft | 448 kts | 202° |
| 2026-05-06 17:32 | 31.70097 | -11.79883 | 38982 ft | 449 kts | 202° |
| 2026-05-06 17:32 | 31.64362 | -11.82680 | 38986 ft | 449 kts | 202° |
| 2026-05-06 17:33 | 31.58639 | -11.85466 | 39002 ft | 449 kts | 202° |
| 2026-05-06 17:33 | 31.52859 | -11.88273 | 38990 ft | 449 kts | 202° |
| 2026-05-06 17:34 | 31.47070 | -11.91081 | 39000 ft | 449 kts | 202° |
| 2026-05-06 17:34 | 31.41273 | -11.93888 | 38995 ft | 449 kts | 202° |
| 2026-05-06 17:35 | 31.35540 | -11.96661 | 38994 ft | 449 kts | 202° |
| 2026-05-06 17:35 | 31.29770 | -11.99448 | 38991 ft | 448 kts | 202° |
| 2026-05-06 17:36 | 31.21156 | -12.03606 | 38983 ft | 448 kts | 204° |
| 2026-05-06 17:36 | 31.15616 | -12.07016 | 38992 ft | 448 kts | 208° |
| 2026-05-06 17:37 | 31.10100 | -12.10453 | 38986 ft | 449 kts | 208° |
| 2026-05-06 17:37 | 31.04582 | -12.13881 | 38985 ft | 449 kts | 208° |
| 2026-05-06 17:38 | 30.99086 | -12.17292 | 38985 ft | 447 kts | 208° |
| 2026-05-06 17:38 | 30.93603 | -12.20691 | 38995 ft | 447 kts | 208° |
| 2026-05-06 17:39 | 30.88059 | -12.24122 | 39004 ft | 447 kts | 208° |
| 2026-05-06 17:39 | 30.82583 | -12.27508 | 39004 ft | 447 kts | 208° |
| 2026-05-06 17:40 | 30.77098 | -12.30894 | 39008 ft | 447 kts | 208° |
| 2026-05-06 17:40 | 30.71578 | -12.34298 | 38993 ft | 446 kts | 208° |
| 2026-05-06 17:41 | 30.66066 | -12.37693 | 38983 ft | 446 kts | 208° |
| 2026-05-06 17:41 | 30.60572 | -12.41071 | 38983 ft | 445 kts | 208° |
| 2026-05-06 17:42 | 30.55097 | -12.44434 | 38984 ft | 445 kts | 208° |
| 2026-05-06 17:42 | 30.49634 | -12.47785 | 38984 ft | 445 kts | 208° |
| 2026-05-06 17:43 | 30.44148 | -12.51146 | 38981 ft | 445 kts | 208° |
| 2026-05-06 17:43 | 30.38671 | -12.54497 | 38985 ft | 446 kts | 208° |
| 2026-05-06 17:44 | 30.33190 | -12.57847 | 38992 ft | 446 kts | 208° |
| 2026-05-06 17:44 | 30.27714 | -12.61188 | 38512 ft | 443 kts | 208° |
| 2026-05-06 17:45 | 30.24952 | -12.62873 | 37935 ft | 442 kts | 208° |
| 2026-05-06 17:45 | 30.22241 | -12.64524 | 37303 ft | 442 kts | 208° |
| 2026-05-06 17:45 | 30.19526 | -12.66177 | 36644 ft | 442 kts | 208° |
| 2026-05-06 17:45 | 30.16798 | -12.67837 | 35983 ft | 442 kts | 208° |
| 2026-05-06 17:46 | 30.14069 | -12.69497 | 35283 ft | 443 kts | 208° |
| 2026-05-06 17:46 | 30.11335 | -12.71158 | 34539 ft | 444 kts | 208° |
| 2026-05-06 17:46 | 30.08600 | -12.72832 | 33791 ft | 446 kts | 208° |
| 2026-05-06 17:46 | 30.05907 | -12.74549 | 33039 ft | 447 kts | 209° |
| 2026-05-06 17:47 | 30.03189 | -12.76309 | 32273 ft | 449 kts | 209° |
| 2026-05-06 17:47 | 30.00456 | -12.78076 | 31485 ft | 450 kts | 209° |
| 2026-05-06 17:47 | 29.97742 | -12.79821 | 30689 ft | 451 kts | 209° |
| 2026-05-06 17:47 | 29.94953 | -12.81608 | 29959 ft | 451 kts | 209° |
| 2026-05-06 17:48 | 29.92206 | -12.83363 | 29370 ft | 446 kts | 209° |
| 2026-05-06 17:48 | 29.89508 | -12.85084 | 28777 ft | 442 kts | 209° |
| 2026-05-06 17:48 | 29.86858 | -12.86774 | 28213 ft | 438 kts | 209° |
| 2026-05-06 17:48 | 29.84197 | -12.88469 | 27623 ft | 434 kts | 209° |
| 2026-05-06 17:49 | 29.81537 | -12.90163 | 27040 ft | 430 kts | 209° |
| 2026-05-06 17:49 | 29.78959 | -12.91804 | 26468 ft | 426 kts | 209° |
| 2026-05-06 17:49 | 29.76382 | -12.93443 | 25889 ft | 423 kts | 209° |
| 2026-05-06 17:49 | 29.73831 | -12.95065 | 25325 ft | 419 kts | 209° |
| 2026-05-06 17:50 | 29.71254 | -12.96702 | 24753 ft | 415 kts | 209° |
| 2026-05-06 17:50 | 29.68813 | -12.98253 | 24244 ft | 411 kts | 209° |
| 2026-05-06 17:50 | 29.66314 | -12.99839 | 24047 ft | 406 kts | 209° |
| 2026-05-06 17:50 | 29.63868 | -13.01390 | 24002 ft | 411 kts | 209° |
| 2026-05-06 17:51 | 29.61328 | -13.03001 | 24007 ft | 411 kts | 209° |
| 2026-05-06 17:51 | 29.58795 | -13.04606 | 23998 ft | 411 kts | 209° |
| 2026-05-06 17:51 | 29.56293 | -13.06190 | 23994 ft | 411 kts | 209° |
| 2026-05-06 17:51 | 29.53741 | -13.07805 | 24002 ft | 411 kts | 209° |
| 2026-05-06 17:52 | 29.51260 | -13.09374 | 24005 ft | 411 kts | 209° |
| 2026-05-06 17:52 | 29.48760 | -13.10954 | 23997 ft | 411 kts | 209° |
| 2026-05-06 17:52 | 29.46247 | -13.12542 | 23998 ft | 411 kts | 209° |
| 2026-05-06 17:52 | 29.44582 | -13.13593 | 23997 ft | 411 kts | 209° |
| 2026-05-06 17:53 | 29.41223 | -13.15713 | 24000 ft | 411 kts | 209° |
| 2026-05-06 17:53 | 29.39662 | -13.16698 | 24003 ft | 411 kts | 209° |
| 2026-05-06 17:53 | 29.37164 | -13.18273 | 23998 ft | 411 kts | 209° |
| 2026-05-06 17:53 | 29.34708 | -13.19720 | 24002 ft | 411 kts | 206° |
| 2026-05-06 17:54 | 29.32155 | -13.21113 | 24002 ft | 411 kts | 206° |
| 2026-05-06 17:54 | 29.29620 | -13.22502 | 23997 ft | 411 kts | 206° |
| 2026-05-06 17:54 | 29.27035 | -13.23921 | 24000 ft | 411 kts | 206° |
| 2026-05-06 17:54 | 29.24445 | -13.25343 | 24002 ft | 411 kts | 206° |
| 2026-05-06 17:55 | 29.21974 | -13.26700 | 23999 ft | 411 kts | 206° |
| 2026-05-06 17:55 | 29.19398 | -13.28113 | 23997 ft | 411 kts | 206° |
| 2026-05-06 17:55 | 29.16840 | -13.29514 | 23835 ft | 408 kts | 206° |
| 2026-05-06 17:55 | 29.14246 | -13.30935 | 23412 ft | 406 kts | 206° |
| 2026-05-06 17:56 | 29.11707 | -13.32324 | 22886 ft | 403 kts | 206° |
| 2026-05-06 17:56 | 29.09214 | -13.33688 | 22345 ft | 400 kts | 206° |
| 2026-05-06 17:56 | 29.06679 | -13.35073 | 21773 ft | 397 kts | 206° |
| 2026-05-06 17:56 | 29.04235 | -13.36409 | 21228 ft | 393 kts | 206° |
| 2026-05-06 17:57 | 29.01759 | -13.37761 | 20671 ft | 390 kts | 206° |
| 2026-05-06 17:57 | 28.99325 | -13.39090 | 20106 ft | 387 kts | 206° |
| 2026-05-06 17:57 | 28.96974 | -13.40372 | 19580 ft | 384 kts | 206° |
| 2026-05-06 17:57 | 28.94564 | -13.41687 | 19036 ft | 381 kts | 206° |
| 2026-05-06 17:58 | 28.92550 | -13.42784 | 18578 ft | 378 kts | 206° |
| 2026-05-06 17:58 | 28.90940 | -13.43661 | 18210 ft | 376 kts | 206° |
| 2026-05-06 17:58 | 28.88563 | -13.44957 | 17652 ft | 373 kts | 206° |
| 2026-05-06 17:58 | 28.86220 | -13.46232 | 17123 ft | 370 kts | 206° |
| 2026-05-06 17:59 | 28.83874 | -13.47508 | 16582 ft | 367 kts | 206° |
| 2026-05-06 17:59 | 28.81611 | -13.48739 | 16066 ft | 364 kts | 206° |
| 2026-05-06 17:59 | 28.79326 | -13.49980 | 15536 ft | 361 kts | 206° |
| 2026-05-06 17:59 | 28.77033 | -13.51223 | 15013 ft | 358 kts | 206° |
| 2026-05-06 18:00 | 28.74831 | -13.52417 | 14493 ft | 356 kts | 206° |
| 2026-05-06 18:00 | 28.72601 | -13.53625 | 14002 ft | 353 kts | 206° |
| 2026-05-06 18:00 | 28.70355 | -13.54843 | 13473 ft | 350 kts | 206° |
| 2026-05-06 18:00 | 28.68204 | -13.56009 | 12974 ft | 348 kts | 206° |
| 2026-05-06 18:01 | 28.66045 | -13.57180 | 12477 ft | 345 kts | 206° |
| 2026-05-06 18:01 | 28.63887 | -13.58350 | 11963 ft | 343 kts | 206° |
| 2026-05-06 18:01 | 28.61742 | -13.59513 | 11478 ft | 340 kts | 206° |
| 2026-05-06 18:01 | 28.59612 | -13.60666 | 10972 ft | 338 kts | 206° |
| 2026-05-06 18:02 | 28.57491 | -13.61814 | 10476 ft | 335 kts | 206° |
| 2026-05-06 18:02 | 28.55412 | -13.62938 | 10176 ft | 327 kts | 205° |
| 2026-05-06 18:02 | 28.53335 | -13.63847 | 10033 ft | 314 kts | 195° |
| 2026-05-06 18:02 | 28.51230 | -13.64298 | 9907 ft | 301 kts | 186° |
| 2026-05-06 18:03 | 28.49181 | -13.64452 | 9767 ft | 289 kts | 184° |
| 2026-05-06 18:03 | 28.47188 | -13.64631 | 9428 ft | 286 kts | 185° |
| 2026-05-06 18:03 | 28.45211 | -13.64829 | 9041 ft | 284 kts | 185° |
| 2026-05-06 18:03 | 28.43228 | -13.65029 | 8655 ft | 283 kts | 185° |
| 2026-05-06 18:04 | 28.41281 | -13.65221 | 8279 ft | 281 kts | 185° |
| 2026-05-06 18:04 | 28.39329 | -13.65411 | 8053 ft | 277 kts | 185° |
| 2026-05-06 18:04 | 28.37372 | -13.65600 | 8004 ft | 282 kts | 185° |
| 2026-05-06 18:04 | 28.35422 | -13.65808 | 8002 ft | 280 kts | 190° |
| 2026-05-06 18:05 | 28.33611 | -13.66579 | 7997 ft | 280 kts | 210° |
| 2026-05-06 18:05 | 28.31964 | -13.67718 | 7999 ft | 280 kts | 214° |
| 2026-05-06 18:05 | 28.30380 | -13.69032 | 8007 ft | 279 kts | 219° |
| 2026-05-06 18:05 | 28.28932 | -13.70496 | 7994 ft | 280 kts | 225° |
| 2026-05-06 18:06 | 28.27597 | -13.72149 | 7999 ft | 279 kts | 231° |
| 2026-05-06 18:06 | 28.26440 | -13.73906 | 8008 ft | 279 kts | 236° |
| 2026-05-06 18:06 | 28.25436 | -13.75788 | 7991 ft | 279 kts | 242° |
| 2026-05-06 18:06 | 28.24601 | -13.77765 | 7999 ft | 279 kts | 248° |
| 2026-05-06 18:07 | 28.23938 | -13.79828 | 8008 ft | 279 kts | 253° |
| 2026-05-06 18:07 | 28.23665 | -13.82008 | 7993 ft | 270 kts | 276° |
| 2026-05-06 18:07 | 28.24174 | -13.83971 | 7993 ft | 254 kts | 298° |
| 2026-05-06 18:07 | 28.25208 | -13.85486 | 7994 ft | 238 kts | 319° |
| 2026-05-06 18:08 | 28.26594 | -13.86496 | 8007 ft | 243 kts | 337° |
| 2026-05-06 18:08 | 28.28230 | -13.86933 | 8001 ft | 241 kts | 358° |
| 2026-05-06 18:08 | 28.29907 | -13.86847 | 7998 ft | 242 kts | 5° |
| 2026-05-06 18:08 | 28.31522 | -13.86325 | 8006 ft | 243 kts | 23° |
| 2026-05-06 18:09 | 28.33072 | -13.85541 | 8000 ft | 242 kts | 29° |
| 2026-05-06 18:09 | 28.34404 | -13.84374 | 7991 ft | 244 kts | 41° |
| 2026-05-06 18:09 | 28.35678 | -13.83187 | 7996 ft | 242 kts | 40° |
| 2026-05-06 18:09 | 28.36913 | -13.81870 | 7996 ft | 242 kts | 45° |
| 2026-05-06 18:10 | 28.38101 | -13.80506 | 8005 ft | 242 kts | 45° |
| 2026-05-06 18:10 | 28.39290 | -13.79164 | 8008 ft | 242 kts | 44° |
| 2026-05-06 18:10 | 28.40511 | -13.77822 | 8005 ft | 243 kts | 43° |
| 2026-05-06 18:10 | 28.41739 | -13.76497 | 7996 ft | 243 kts | 43° |
| 2026-05-06 18:11 | 28.42958 | -13.75191 | 7990 ft | 243 kts | 43° |
| 2026-05-06 18:11 | 28.44197 | -13.73866 | 7994 ft | 242 kts | 43° |
| 2026-05-06 18:11 | 28.45425 | -13.72553 | 8004 ft | 242 kts | 43° |
| 2026-05-06 18:11 | 28.46642 | -13.71249 | 8009 ft | 242 kts | 43° |
| 2026-05-06 18:12 | 28.47609 | -13.69718 | 8016 ft | 242 kts | 70° |
| 2026-05-06 18:12 | 28.47774 | -13.67823 | 8012 ft | 243 kts | 101° |
| 2026-05-06 18:12 | 28.47077 | -13.66125 | 8004 ft | 243 kts | 132° |
| 2026-05-06 18:12 | 28.45686 | -13.65058 | 8000 ft | 242 kts | 164° |
| 2026-05-06 18:13 | 28.44039 | -13.64936 | 7996 ft | 241 kts | 188° |
| 2026-05-06 18:13 | 28.42363 | -13.65172 | 7986 ft | 240 kts | 186° |
| 2026-05-06 18:13 | 28.40705 | -13.65341 | 7799 ft | 238 kts | 185° |
| 2026-05-06 18:13 | 28.39052 | -13.65487 | 7494 ft | 238 kts | 185° |
| 2026-05-06 18:14 | 28.37410 | -13.65631 | 7192 ft | 238 kts | 185° |
| 2026-05-06 18:14 | 28.35760 | -13.65778 | 6888 ft | 237 kts | 185° |
| 2026-05-06 18:14 | 28.34172 | -13.66203 | 6567 ft | 234 kts | 208° |
| 2026-05-06 18:14 | 28.32775 | -13.67114 | 6261 ft | 234 kts | 212° |
| 2026-05-06 18:15 | 28.31414 | -13.68133 | 5868 ft | 238 kts | 216° |
| 2026-05-06 18:15 | 28.30118 | -13.69271 | 5607 ft | 233 kts | 220° |
| 2026-05-06 18:15 | 28.28924 | -13.70505 | 5252 ft | 232 kts | 225° |
| 2026-05-06 18:15 | 28.27829 | -13.71841 | 4897 ft | 231 kts | 230° |
| 2026-05-06 18:16 | 28.26832 | -13.73277 | 4564 ft | 229 kts | 234° |
| 2026-05-06 18:16 | 28.25951 | -13.74780 | 4159 ft | 231 kts | 239° |
| 2026-05-06 18:16 | 28.25177 | -13.76363 | 3795 ft | 231 kts | 244° |
| 2026-05-06 18:16 | 28.24508 | -13.78037 | 3450 ft | 230 kts | 248° |
| 2026-05-06 18:17 | 28.23968 | -13.79737 | 3106 ft | 228 kts | 253° |
| 2026-05-06 18:17 | 28.23549 | -13.81484 | 2765 ft | 227 kts | 257° |
| 2026-05-06 18:17 | 28.23272 | -13.83218 | 2519 ft | 222 kts | 267° |
| 2026-05-06 18:17 | 28.23582 | -13.84854 | 2483 ft | 206 kts | 300° |
| 2026-05-06 18:18 | 28.24473 | -13.86026 | 2491 ft | 194 kts | 322° |
| 2026-05-06 18:18 | 28.25643 | -13.86736 | 2466 ft | 188 kts | 344° |
| 2026-05-06 18:18 | 28.26917 | -13.86936 | 2478 ft | 187 kts | 357° |
| 2026-05-06 18:18 | 28.28217 | -13.86946 | 2481 ft | 187 kts | 0° |
| 2026-05-06 18:19 | 28.29536 | -13.86905 | 2479 ft | 187 kts | 1° |
| 2026-05-06 18:19 | 28.30822 | -13.86865 | 2479 ft | 187 kts | 1° |
| 2026-05-06 18:19 | 28.32120 | -13.86821 | 2412 ft | 189 kts | 1° |
| 2026-05-06 18:19 | 28.33428 | -13.86777 | 2159 ft | 184 kts | 1° |
| 2026-05-06 18:20 | 28.34607 | -13.86737 | 1926 ft | 171 kts | 1° |
| 2026-05-06 18:20 | 28.35412 | -13.86710 | 1773 ft | 163 kts | 1° |
| 2026-05-06 18:20 | 28.36552 | -13.86672 | 1561 ft | 166 kts | 1° |
| 2026-05-06 18:20 | 28.37702 | -13.86631 | 1343 ft | 164 kts | 1° |
| 2026-05-06 18:21 | 28.38838 | -13.86595 | 1121 ft | 163 kts | 0° |
| 2026-05-06 18:21 | 28.39942 | -13.86557 | 935 ft | 155 kts | 1° |
| 2026-05-06 18:21 | 28.40888 | -13.86526 | 725 ft | 142 kts | 1° |
| 2026-05-06 18:21 | 28.41876 | -13.86492 | 539 ft | 143 kts | 1° |
| 2026-05-06 18:22 | 28.42866 | -13.86459 | 357 ft | 141 kts | 1° |
| 2026-05-06 18:22 | 28.43842 | -13.86426 | 172 ft | 141 kts | 1° |
| 2026-05-06 18:22 | 28.44799 | -13.86394 | 61 ft | 121 kts | 1° |
| 2026-05-06 18:22 | 28.45436 | -13.86372 | 77 ft | 63 kts | 1° |
| 2026-05-06 18:23 | 28.45656 | -13.86378 | 86 ft | 0 kts | 312° |
| 2026-05-06 18:23 | 28.45661 | -13.86387 | 85 ft | 6 kts | 300° |
| 2026-05-06 18:23 | 28.45662 | -13.86433 | 84 ft | 8 kts | 270° |
| 2026-05-06 18:23 | 28.45662 | -13.86505 | 83 ft | 10 kts | 270° |
| 2026-05-06 18:24 | 28.45693 | -13.86562 | 85 ft | 0 kts | 320° |
| 2026-05-06 18:24 | 28.45700 | -13.86569 | 87 ft | 3 kts | 319° |
| 2026-05-06 18:25 | 28.45714 | -13.86599 | 88 ft | 5 kts | 276° |
| 2026-05-06 18:25 | 28.45714 | -13.86652 | 89 ft | 8 kts | 270° |
| 2026-05-06 18:25 | 28.45695 | -13.86717 | 90 ft | 10 kts | 218° |
| 2026-05-06 18:25 | 28.45618 | -13.86738 | 86 ft | 13 kts | 209° |
| 2026-05-06 18:26 | 28.45606 | -13.86807 | 83 ft | 0 kts | 268° |
| 2026-05-06 18:26 | 28.45606 | -13.86816 | 83 ft | 0 kts | 270° |